sensor_id;sensor_type;location;lat;lon;timestamp;P1;durP1;ratioP1;P2;durP2;ratioP2
34767;SDS011;21755;43.608;1.236;2022-12-24T00:01:24;7.15;;;3.55;;
34767;SDS011;21755;43.608;1.236;2022-12-24T00:03:50;7.60;;;4.07;;
34767;SDS011;21755;43.608;1.236;2022-12-24T00:06:17;8.43;;;3.97;;
34767;SDS011;21755;43.608;1.236;2022-12-24T00:08:45;6.95;;;3.90;;
34767;SDS011;21755;43.608;1.236;2022-12-24T00:11:11;9.90;;;4.63;;
34767;SDS011;21755;43.608;1.236;2022-12-24T00:13:37;11.15;;;4.22;;
34767;SDS011;21755;43.608;1.236;2022-12-24T00:16:03;7.40;;;4.22;;
34767;SDS011;21755;43.608;1.236;2022-12-24T00:18:29;8.55;;;4.45;;
34767;SDS011;21755;43.608;1.236;2022-12-24T00:20:55;14.85;;;6.25;;
34767;SDS011;21755;43.608;1.236;2022-12-24T00:23:21;14.38;;;6.30;;
34767;SDS011;21755;43.608;1.236;2022-12-24T00:25:47;16.17;;;6.65;;
34767;SDS011;21755;43.608;1.236;2022-12-24T00:28:13;10.23;;;5.65;;
34767;SDS011;21755;43.608;1.236;2022-12-24T00:30:40;12.63;;;5.45;;
34767;SDS011;21755;43.608;1.236;2022-12-24T00:33:07;12.68;;;5.78;;
34767;SDS011;21755;43.608;1.236;2022-12-24T00:35:34;20.25;;;6.85;;
34767;SDS011;21755;43.608;1.236;2022-12-24T00:38:00;12.48;;;6.72;;
34767;SDS011;21755;43.608;1.236;2022-12-24T00:40:28;12.10;;;5.70;;
34767;SDS011;21755;43.608;1.236;2022-12-24T00:42:54;11.38;;;5.07;;
34767;SDS011;21755;43.608;1.236;2022-12-24T00:45:20;12.65;;;4.70;;
34767;SDS011;21755;43.608;1.236;2022-12-24T00:47:47;12.95;;;4.70;;
34767;SDS011;21755;43.608;1.236;2022-12-24T00:50:13;9.63;;;5.10;;
34767;SDS011;21755;43.608;1.236;2022-12-24T00:52:39;8.63;;;4.53;;
34767;SDS011;21755;43.608;1.236;2022-12-24T00:55:05;13.90;;;4.60;;
34767;SDS011;21755;43.608;1.236;2022-12-24T00:57:31;13.80;;;6.45;;
34767;SDS011;21755;43.608;1.236;2022-12-24T00:59:57;16.73;;;7.65;;
34767;SDS011;21755;43.608;1.236;2022-12-24T01:02:25;26.85;;;10.77;;
34767;SDS011;21755;43.608;1.236;2022-12-24T01:04:51;23.05;;;10.75;;
34767;SDS011;21755;43.608;1.236;2022-12-24T01:07:35;24.70;;;10.68;;
34767;SDS011;21755;43.608;1.236;2022-12-24T01:10:06;15.10;;;7.70;;
34767;SDS011;21755;43.608;1.236;2022-12-24T01:12:33;16.90;;;6.97;;
34767;SDS011;21755;43.608;1.236;2022-12-24T01:14:59;16.88;;;6.47;;
34767;SDS011;21755;43.608;1.236;2022-12-24T01:17:25;14.43;;;6.88;;
34767;SDS011;21755;43.608;1.236;2022-12-24T01:19:51;13.95;;;6.43;;
34767;SDS011;21755;43.608;1.236;2022-12-24T01:22:17;12.40;;;6.05;;
34767;SDS011;21755;43.608;1.236;2022-12-24T01:24:43;12.32;;;6.10;;
34767;SDS011;21755;43.608;1.236;2022-12-24T01:27:09;11.80;;;5.55;;
34767;SDS011;21755;43.608;1.236;2022-12-24T01:29:35;10.90;;;5.18;;
34767;SDS011;21755;43.608;1.236;2022-12-24T01:32:01;15.10;;;5.95;;
34767;SDS011;21755;43.608;1.236;2022-12-24T01:34:27;11.10;;;5.65;;
34767;SDS011;21755;43.608;1.236;2022-12-24T01:36:53;11.50;;;5.85;;
34767;SDS011;21755;43.608;1.236;2022-12-24T01:39:19;14.80;;;5.88;;
34767;SDS011;21755;43.608;1.236;2022-12-24T01:41:44;12.02;;;5.47;;
34767;SDS011;21755;43.608;1.236;2022-12-24T01:44:33;10.43;;;4.57;;
34767;SDS011;21755;43.608;1.236;2022-12-24T01:47:08;11.63;;;4.65;;
34767;SDS011;21755;43.608;1.236;2022-12-24T01:49:44;13.52;;;5.15;;
34767;SDS011;21755;43.608;1.236;2022-12-24T01:52:26;10.75;;;6.05;;
34767;SDS011;21755;43.608;1.236;2022-12-24T01:57:30;13.23;;;5.60;;
34767;SDS011;21755;43.608;1.236;2022-12-24T02:00:05;9.40;;;4.90;;
34767;SDS011;21755;43.608;1.236;2022-12-24T02:02:34;13.52;;;5.47;;
34767;SDS011;21755;43.608;1.236;2022-12-24T02:05:04;10.07;;;5.90;;
34767;SDS011;21755;43.608;1.236;2022-12-24T02:07:39;13.82;;;6.18;;
34767;SDS011;21755;43.608;1.236;2022-12-24T02:10:06;13.20;;;6.18;;
34767;SDS011;21755;43.608;1.236;2022-12-24T02:12:36;11.18;;;6.10;;
34767;SDS011;21755;43.608;1.236;2022-12-24T02:15:05;11.70;;;5.30;;
34767;SDS011;21755;43.608;1.236;2022-12-24T02:17:34;12.73;;;6.00;;
34767;SDS011;21755;43.608;1.236;2022-12-24T02:31:40;14.05;;;5.78;;
34767;SDS011;21755;43.608;1.236;2022-12-24T02:34:20;9.65;;;5.78;;
34767;SDS011;21755;43.608;1.236;2022-12-24T02:37:29;11.38;;;5.95;;
34767;SDS011;21755;43.608;1.236;2022-12-24T02:40:04;13.63;;;6.38;;
34767;SDS011;21755;43.608;1.236;2022-12-24T02:45:21;15.80;;;7.03;;
34767;SDS011;21755;43.608;1.236;2022-12-24T02:47:53;11.00;;;5.85;;
34767;SDS011;21755;43.608;1.236;2022-12-24T02:50:20;15.10;;;5.80;;
34767;SDS011;21755;43.608;1.236;2022-12-24T02:52:47;11.93;;;5.80;;
34767;SDS011;21755;43.608;1.236;2022-12-24T02:55:18;11.20;;;5.13;;
34767;SDS011;21755;43.608;1.236;2022-12-24T03:00:23;8.23;;;4.80;;
34767;SDS011;21755;43.608;1.236;2022-12-24T03:05:29;9.85;;;5.22;;
34767;SDS011;21755;43.608;1.236;2022-12-24T03:11:01;11.48;;;5.55;;
34767;SDS011;21755;43.608;1.236;2022-12-24T03:13:36;11.30;;;5.38;;
34767;SDS011;21755;43.608;1.236;2022-12-24T03:16:03;9.95;;;5.30;;
34767;SDS011;21755;43.608;1.236;2022-12-24T03:18:33;8.70;;;4.38;;
34767;SDS011;21755;43.608;1.236;2022-12-24T03:21:08;11.23;;;5.10;;
34767;SDS011;21755;43.608;1.236;2022-12-24T03:23:54;8.88;;;4.57;;
34767;SDS011;21755;43.608;1.236;2022-12-24T03:26:21;8.32;;;5.20;;
34767;SDS011;21755;43.608;1.236;2022-12-24T03:28:47;9.00;;;5.22;;
34767;SDS011;21755;43.608;1.236;2022-12-24T03:31:14;8.68;;;5.13;;
34767;SDS011;21755;43.608;1.236;2022-12-24T03:33:41;10.07;;;5.28;;
34767;SDS011;21755;43.608;1.236;2022-12-24T03:36:07;9.05;;;4.90;;
34767;SDS011;21755;43.608;1.236;2022-12-24T03:38:33;8.27;;;4.93;;
34767;SDS011;21755;43.608;1.236;2022-12-24T03:41:00;12.15;;;5.63;;
34767;SDS011;21755;43.608;1.236;2022-12-24T03:43:26;11.15;;;5.60;;
34767;SDS011;21755;43.608;1.236;2022-12-24T03:45:52;9.57;;;4.88;;
34767;SDS011;21755;43.608;1.236;2022-12-24T03:48:18;13.40;;;5.32;;
34767;SDS011;21755;43.608;1.236;2022-12-24T03:50:44;7.97;;;5.03;;
34767;SDS011;21755;43.608;1.236;2022-12-24T03:53:09;9.65;;;4.78;;
34767;SDS011;21755;43.608;1.236;2022-12-24T03:55:36;9.05;;;4.82;;
34767;SDS011;21755;43.608;1.236;2022-12-24T03:58:03;9.25;;;5.18;;
34767;SDS011;21755;43.608;1.236;2022-12-24T04:00:29;10.27;;;4.72;;
34767;SDS011;21755;43.608;1.236;2022-12-24T04:02:55;10.45;;;4.53;;
34767;SDS011;21755;43.608;1.236;2022-12-24T04:05:21;11.20;;;5.30;;
34767;SDS011;21755;43.608;1.236;2022-12-24T04:07:47;11.98;;;5.30;;
34767;SDS011;21755;43.608;1.236;2022-12-24T04:10:14;8.32;;;4.55;;
34767;SDS011;21755;43.608;1.236;2022-12-24T04:12:41;9.52;;;4.30;;
34767;SDS011;21755;43.608;1.236;2022-12-24T04:15:07;12.25;;;6.80;;
34767;SDS011;21755;43.608;1.236;2022-12-24T04:17:34;10.85;;;4.78;;
34767;SDS011;21755;43.608;1.236;2022-12-24T04:20:00;12.07;;;5.88;;
34767;SDS011;21755;43.608;1.236;2022-12-24T04:22:25;12.68;;;5.53;;
34767;SDS011;21755;43.608;1.236;2022-12-24T04:24:51;10.70;;;4.60;;
34767;SDS011;21755;43.608;1.236;2022-12-24T04:27:17;9.95;;;4.85;;
34767;SDS011;21755;43.608;1.236;2022-12-24T04:29:43;13.15;;;5.93;;
34767;SDS011;21755;43.608;1.236;2022-12-24T04:32:09;55.35;;;26.50;;
34767;SDS011;21755;43.608;1.236;2022-12-24T04:34:35;28.40;;;14.35;;
34767;SDS011;21755;43.608;1.236;2022-12-24T04:37:01;13.32;;;6.82;;
34767;SDS011;21755;43.608;1.236;2022-12-24T04:39:28;13.93;;;5.90;;
34767;SDS011;21755;43.608;1.236;2022-12-24T04:41:54;11.20;;;5.93;;
34767;SDS011;21755;43.608;1.236;2022-12-24T04:44:19;7.97;;;4.65;;
34767;SDS011;21755;43.608;1.236;2022-12-24T04:46:45;7.53;;;4.70;;
34767;SDS011;21755;43.608;1.236;2022-12-24T04:49:11;12.65;;;4.70;;
34767;SDS011;21755;43.608;1.236;2022-12-24T04:51:37;9.32;;;4.72;;
34767;SDS011;21755;43.608;1.236;2022-12-24T04:54:03;10.43;;;5.13;;
34767;SDS011;21755;43.608;1.236;2022-12-24T04:56:30;13.25;;;5.25;;
34767;SDS011;21755;43.608;1.236;2022-12-24T04:58:57;9.63;;;4.68;;
34767;SDS011;21755;43.608;1.236;2022-12-24T05:01:25;9.25;;;5.05;;
34767;SDS011;21755;43.608;1.236;2022-12-24T05:03:52;12.43;;;5.55;;
34767;SDS011;21755;43.608;1.236;2022-12-24T05:06:22;9.80;;;5.45;;
34767;SDS011;21755;43.608;1.236;2022-12-24T05:08:52;10.18;;;5.15;;
34767;SDS011;21755;43.608;1.236;2022-12-24T05:11:19;10.07;;;4.85;;
34767;SDS011;21755;43.608;1.236;2022-12-24T05:13:45;9.50;;;4.95;;
34767;SDS011;21755;43.608;1.236;2022-12-24T05:16:12;9.45;;;4.32;;
34767;SDS011;21755;43.608;1.236;2022-12-24T05:18:38;14.20;;;5.30;;
34767;SDS011;21755;43.608;1.236;2022-12-24T05:21:08;14.95;;;5.57;;
34767;SDS011;21755;43.608;1.236;2022-12-24T05:23:42;13.27;;;5.80;;
34767;SDS011;21755;43.608;1.236;2022-12-24T05:29:19;8.35;;;5.00;;
34767;SDS011;21755;43.608;1.236;2022-12-24T05:31:46;15.18;;;5.63;;
34767;SDS011;21755;43.608;1.236;2022-12-24T05:34:12;11.02;;;6.07;;
34767;SDS011;21755;43.608;1.236;2022-12-24T05:36:39;14.98;;;6.30;;
34767;SDS011;21755;43.608;1.236;2022-12-24T05:39:06;8.73;;;5.07;;
34767;SDS011;21755;43.608;1.236;2022-12-24T05:41:33;10.95;;;5.60;;
34767;SDS011;21755;43.608;1.236;2022-12-24T05:43:59;11.68;;;5.13;;
34767;SDS011;21755;43.608;1.236;2022-12-24T05:46:25;12.48;;;5.53;;
34767;SDS011;21755;43.608;1.236;2022-12-24T05:48:51;10.32;;;4.63;;
34767;SDS011;21755;43.608;1.236;2022-12-24T05:51:18;8.02;;;4.50;;
34767;SDS011;21755;43.608;1.236;2022-12-24T05:53:46;12.38;;;5.15;;
34767;SDS011;21755;43.608;1.236;2022-12-24T05:56:14;16.83;;;5.60;;
34767;SDS011;21755;43.608;1.236;2022-12-24T05:58:43;9.48;;;4.70;;
34767;SDS011;21755;43.608;1.236;2022-12-24T06:01:09;7.57;;;4.53;;
34767;SDS011;21755;43.608;1.236;2022-12-24T06:03:36;12.98;;;6.05;;
34767;SDS011;21755;43.608;1.236;2022-12-24T06:06:03;13.32;;;5.88;;
34767;SDS011;21755;43.608;1.236;2022-12-24T06:08:32;10.82;;;4.72;;
34767;SDS011;21755;43.608;1.236;2022-12-24T06:10:59;10.48;;;5.45;;
34767;SDS011;21755;43.608;1.236;2022-12-24T06:13:27;12.32;;;5.28;;
34767;SDS011;21755;43.608;1.236;2022-12-24T06:15:56;10.45;;;5.72;;
34767;SDS011;21755;43.608;1.236;2022-12-24T06:18:24;10.68;;;5.07;;
34767;SDS011;21755;43.608;1.236;2022-12-24T06:20:50;8.30;;;4.70;;
34767;SDS011;21755;43.608;1.236;2022-12-24T06:23:17;11.43;;;7.03;;
34767;SDS011;21755;43.608;1.236;2022-12-24T06:25:43;13.77;;;6.53;;
34767;SDS011;21755;43.608;1.236;2022-12-24T06:28:10;10.45;;;5.72;;
34767;SDS011;21755;43.608;1.236;2022-12-24T06:30:36;13.70;;;6.35;;
34767;SDS011;21755;43.608;1.236;2022-12-24T06:33:02;13.32;;;6.93;;
34767;SDS011;21755;43.608;1.236;2022-12-24T06:35:29;16.35;;;7.80;;
34767;SDS011;21755;43.608;1.236;2022-12-24T06:37:56;13.13;;;7.18;;
34767;SDS011;21755;43.608;1.236;2022-12-24T06:40:22;11.43;;;6.35;;
34767;SDS011;21755;43.608;1.236;2022-12-24T06:42:47;10.50;;;6.10;;
34767;SDS011;21755;43.608;1.236;2022-12-24T06:45:14;12.90;;;6.10;;
34767;SDS011;21755;43.608;1.236;2022-12-24T06:47:39;8.57;;;5.18;;
34767;SDS011;21755;43.608;1.236;2022-12-24T06:50:05;8.73;;;5.13;;
34767;SDS011;21755;43.608;1.236;2022-12-24T06:52:32;8.70;;;4.93;;
34767;SDS011;21755;43.608;1.236;2022-12-24T06:54:58;10.02;;;6.00;;
34767;SDS011;21755;43.608;1.236;2022-12-24T06:57:23;11.40;;;6.13;;
34767;SDS011;21755;43.608;1.236;2022-12-24T06:59:49;15.23;;;5.72;;
34767;SDS011;21755;43.608;1.236;2022-12-24T07:02:15;15.60;;;7.45;;
34767;SDS011;21755;43.608;1.236;2022-12-24T07:04:41;18.42;;;8.23;;
34767;SDS011;21755;43.608;1.236;2022-12-24T07:07:07;13.50;;;7.60;;
34767;SDS011;21755;43.608;1.236;2022-12-24T07:09:33;19.27;;;7.57;;
34767;SDS011;21755;43.608;1.236;2022-12-24T07:11:59;15.45;;;7.82;;
34767;SDS011;21755;43.608;1.236;2022-12-24T07:14:25;14.50;;;7.85;;
34767;SDS011;21755;43.608;1.236;2022-12-24T07:16:51;19.98;;;7.72;;
34767;SDS011;21755;43.608;1.236;2022-12-24T07:19:17;13.25;;;7.43;;
34767;SDS011;21755;43.608;1.236;2022-12-24T07:21:43;13.82;;;7.03;;
34767;SDS011;21755;43.608;1.236;2022-12-24T07:24:09;14.02;;;6.85;;
34767;SDS011;21755;43.608;1.236;2022-12-24T07:26:34;11.90;;;6.10;;
34767;SDS011;21755;43.608;1.236;2022-12-24T07:29:00;13.35;;;6.20;;
34767;SDS011;21755;43.608;1.236;2022-12-24T07:31:26;12.73;;;5.63;;
34767;SDS011;21755;43.608;1.236;2022-12-24T07:33:52;11.13;;;6.32;;
34767;SDS011;21755;43.608;1.236;2022-12-24T07:36:19;10.68;;;5.43;;
34767;SDS011;21755;43.608;1.236;2022-12-24T07:38:46;11.15;;;5.82;;
34767;SDS011;21755;43.608;1.236;2022-12-24T07:41:12;12.10;;;5.68;;
34767;SDS011;21755;43.608;1.236;2022-12-24T07:43:39;10.73;;;5.60;;
34767;SDS011;21755;43.608;1.236;2022-12-24T07:46:05;9.80;;;4.72;;
34767;SDS011;21755;43.608;1.236;2022-12-24T07:48:31;11.88;;;5.32;;
34767;SDS011;21755;43.608;1.236;2022-12-24T07:50:58;9.98;;;4.47;;
34767;SDS011;21755;43.608;1.236;2022-12-24T07:53:25;9.13;;;4.60;;
34767;SDS011;21755;43.608;1.236;2022-12-24T07:55:51;7.47;;;3.97;;
34767;SDS011;21755;43.608;1.236;2022-12-24T07:58:17;10.50;;;4.80;;
34767;SDS011;21755;43.608;1.236;2022-12-24T08:00:43;9.23;;;5.05;;
34767;SDS011;21755;43.608;1.236;2022-12-24T08:03:16;7.95;;;4.53;;
34767;SDS011;21755;43.608;1.236;2022-12-24T08:05:43;10.75;;;4.57;;
34767;SDS011;21755;43.608;1.236;2022-12-24T08:08:09;8.52;;;4.30;;
34767;SDS011;21755;43.608;1.236;2022-12-24T08:10:37;9.48;;;4.20;;
34767;SDS011;21755;43.608;1.236;2022-12-24T08:13:03;8.38;;;4.85;;
34767;SDS011;21755;43.608;1.236;2022-12-24T08:15:30;12.30;;;4.55;;
34767;SDS011;21755;43.608;1.236;2022-12-24T08:17:56;8.57;;;5.38;;
34767;SDS011;21755;43.608;1.236;2022-12-24T08:20:22;11.75;;;4.95;;
34767;SDS011;21755;43.608;1.236;2022-12-24T08:22:48;11.02;;;4.63;;
34767;SDS011;21755;43.608;1.236;2022-12-24T08:25:14;12.25;;;4.90;;
34767;SDS011;21755;43.608;1.236;2022-12-24T08:27:40;7.03;;;4.45;;
34767;SDS011;21755;43.608;1.236;2022-12-24T08:30:06;7.18;;;4.38;;
34767;SDS011;21755;43.608;1.236;2022-12-24T08:32:33;8.55;;;4.45;;
34767;SDS011;21755;43.608;1.236;2022-12-24T08:34:59;6.55;;;3.80;;
34767;SDS011;21755;43.608;1.236;2022-12-24T08:37:24;10.75;;;4.93;;
34767;SDS011;21755;43.608;1.236;2022-12-24T08:39:50;12.63;;;6.47;;
34767;SDS011;21755;43.608;1.236;2022-12-24T08:42:16;19.45;;;8.38;;
34767;SDS011;21755;43.608;1.236;2022-12-24T08:44:42;28.83;;;12.57;;
34767;SDS011;21755;43.608;1.236;2022-12-24T08:47:08;37.05;;;16.33;;
34767;SDS011;21755;43.608;1.236;2022-12-24T08:49:34;30.30;;;13.38;;
34767;SDS011;21755;43.608;1.236;2022-12-24T08:52:00;30.17;;;14.18;;
34767;SDS011;21755;43.608;1.236;2022-12-24T08:54:26;25.63;;;11.63;;
34767;SDS011;21755;43.608;1.236;2022-12-24T08:56:52;32.90;;;15.48;;
34767;SDS011;21755;43.608;1.236;2022-12-24T08:59:18;31.23;;;15.02;;
34767;SDS011;21755;43.608;1.236;2022-12-24T09:01:43;24.45;;;13.70;;
34767;SDS011;21755;43.608;1.236;2022-12-24T09:04:09;30.10;;;12.98;;
34767;SDS011;21755;43.608;1.236;2022-12-24T09:06:35;30.63;;;13.35;;
34767;SDS011;21755;43.608;1.236;2022-12-24T09:09:02;31.25;;;14.50;;
34767;SDS011;21755;43.608;1.236;2022-12-24T09:11:29;34.60;;;15.40;;
34767;SDS011;21755;43.608;1.236;2022-12-24T09:13:55;33.42;;;15.25;;
34767;SDS011;21755;43.608;1.236;2022-12-24T09:16:21;35.58;;;17.00;;
34767;SDS011;21755;43.608;1.236;2022-12-24T09:18:46;39.88;;;16.73;;
34767;SDS011;21755;43.608;1.236;2022-12-24T09:21:14;32.67;;;14.90;;
34767;SDS011;21755;43.608;1.236;2022-12-24T09:23:41;27.27;;;12.85;;
34767;SDS011;21755;43.608;1.236;2022-12-24T09:26:10;27.92;;;13.18;;
34767;SDS011;21755;43.608;1.236;2022-12-24T09:31:08;23.90;;;12.10;;
34767;SDS011;21755;43.608;1.236;2022-12-24T09:33:35;23.55;;;11.75;;
34767;SDS011;21755;43.608;1.236;2022-12-24T09:36:03;18.55;;;9.73;;
34767;SDS011;21755;43.608;1.236;2022-12-24T09:38:29;21.30;;;10.10;;
34767;SDS011;21755;43.608;1.236;2022-12-24T09:40:56;19.35;;;10.23;;
34767;SDS011;21755;43.608;1.236;2022-12-24T09:43:25;15.45;;;8.98;;
34767;SDS011;21755;43.608;1.236;2022-12-24T09:45:59;18.75;;;9.52;;
34767;SDS011;21755;43.608;1.236;2022-12-24T09:48:47;20.65;;;9.98;;
34767;SDS011;21755;43.608;1.236;2022-12-24T09:51:20;23.40;;;9.80;;
34767;SDS011;21755;43.608;1.236;2022-12-24T09:54:09;17.77;;;8.75;;
34767;SDS011;21755;43.608;1.236;2022-12-24T09:56:53;15.75;;;8.75;;
34767;SDS011;21755;43.608;1.236;2022-12-24T09:59:21;19.23;;;8.48;;
34767;SDS011;21755;43.608;1.236;2022-12-24T10:01:50;14.15;;;8.50;;
34767;SDS011;21755;43.608;1.236;2022-12-24T10:04:19;15.57;;;9.07;;
34767;SDS011;21755;43.608;1.236;2022-12-24T10:12:33;15.63;;;7.80;;
34767;SDS011;21755;43.608;1.236;2022-12-24T10:17:40;16.27;;;7.05;;
34767;SDS011;21755;43.608;1.236;2022-12-24T10:20:44;9.70;;;6.25;;
34767;SDS011;21755;43.608;1.236;2022-12-24T10:23:34;11.65;;;6.18;;
34767;SDS011;21755;43.608;1.236;2022-12-24T10:26:22;12.70;;;6.47;;
34767;SDS011;21755;43.608;1.236;2022-12-24T10:31:52;11.70;;;6.50;;
34767;SDS011;21755;43.608;1.236;2022-12-24T10:34:35;11.85;;;6.00;;
34767;SDS011;21755;43.608;1.236;2022-12-24T10:37:10;13.45;;;6.68;;
34767;SDS011;21755;43.608;1.236;2022-12-24T10:39:40;11.05;;;6.75;;
34767;SDS011;21755;43.608;1.236;2022-12-24T10:42:07;10.35;;;5.63;;
34767;SDS011;21755;43.608;1.236;2022-12-24T10:44:35;11.45;;;5.90;;
34767;SDS011;21755;43.608;1.236;2022-12-24T10:47:01;11.05;;;4.95;;
34767;SDS011;21755;43.608;1.236;2022-12-24T10:49:32;8.45;;;4.65;;
34767;SDS011;21755;43.608;1.236;2022-12-24T10:52:14;10.60;;;4.43;;
34767;SDS011;21755;43.608;1.236;2022-12-24T10:57:35;11.43;;;5.18;;
34767;SDS011;21755;43.608;1.236;2022-12-24T11:00:02;7.53;;;5.05;;
34767;SDS011;21755;43.608;1.236;2022-12-24T11:02:31;10.50;;;5.30;;
34767;SDS011;21755;43.608;1.236;2022-12-24T11:04:59;11.05;;;5.25;;
34767;SDS011;21755;43.608;1.236;2022-12-24T11:07:27;12.45;;;5.05;;
34767;SDS011;21755;43.608;1.236;2022-12-24T11:12:22;13.82;;;4.57;;
34767;SDS011;21755;43.608;1.236;2022-12-24T11:15:00;10.23;;;4.93;;
34767;SDS011;21755;43.608;1.236;2022-12-24T11:17:26;8.82;;;4.43;;
34767;SDS011;21755;43.608;1.236;2022-12-24T11:19:52;14.55;;;4.47;;
34767;SDS011;21755;43.608;1.236;2022-12-24T11:22:22;8.90;;;4.22;;
34767;SDS011;21755;43.608;1.236;2022-12-24T11:30:29;10.82;;;4.25;;
34767;SDS011;21755;43.608;1.236;2022-12-24T11:35:25;9.25;;;4.45;;
34767;SDS011;21755;43.608;1.236;2022-12-24T11:40:47;8.50;;;3.95;;
34767;SDS011;21755;43.608;1.236;2022-12-24T11:43:17;5.45;;;3.70;;
34767;SDS011;21755;43.608;1.236;2022-12-24T11:45:49;10.10;;;3.92;;
34767;SDS011;21755;43.608;1.236;2022-12-24T11:48:26;9.80;;;4.38;;
34767;SDS011;21755;43.608;1.236;2022-12-24T11:50:55;9.90;;;4.10;;
34767;SDS011;21755;43.608;1.236;2022-12-24T11:53:24;7.25;;;3.67;;
34767;SDS011;21755;43.608;1.236;2022-12-24T11:55:55;6.30;;;3.42;;
34767;SDS011;21755;43.608;1.236;2022-12-24T12:01:12;8.50;;;3.63;;
34767;SDS011;21755;43.608;1.236;2022-12-24T12:04:44;5.00;;;3.33;;
34767;SDS011;21755;43.608;1.236;2022-12-24T12:09:43;6.43;;;3.55;;
34767;SDS011;21755;43.608;1.236;2022-12-24T12:12:21;12.00;;;3.67;;
34767;SDS011;21755;43.608;1.236;2022-12-24T12:14:59;5.78;;;3.40;;
34767;SDS011;21755;43.608;1.236;2022-12-24T12:20:27;6.95;;;3.25;;
34767;SDS011;21755;43.608;1.236;2022-12-24T12:28:36;4.85;;;3.25;;
34767;SDS011;21755;43.608;1.236;2022-12-24T12:36:42;7.03;;;3.53;;
34767;SDS011;21755;43.608;1.236;2022-12-24T12:39:13;9.90;;;3.38;;
34767;SDS011;21755;43.608;1.236;2022-12-24T12:41:45;10.07;;;3.10;;
34767;SDS011;21755;43.608;1.236;2022-12-24T12:47:15;10.18;;;3.42;;
34767;SDS011;21755;43.608;1.236;2022-12-24T12:52:51;5.25;;;3.05;;
34767;SDS011;21755;43.608;1.236;2022-12-24T12:58:38;7.60;;;3.58;;
34767;SDS011;21755;43.608;1.236;2022-12-24T13:01:19;11.40;;;3.30;;
34767;SDS011;21755;43.608;1.236;2022-12-24T13:03:53;10.77;;;3.45;;
34767;SDS011;21755;43.608;1.236;2022-12-24T13:06:55;6.35;;;2.80;;
34767;SDS011;21755;43.608;1.236;2022-12-24T13:15:27;5.65;;;2.58;;
34767;SDS011;21755;43.608;1.236;2022-12-24T13:20:48;7.63;;;3.20;;
34767;SDS011;21755;43.608;1.236;2022-12-24T13:23:17;7.75;;;2.90;;
34767;SDS011;21755;43.608;1.236;2022-12-24T13:25:48;8.95;;;3.78;;
34767;SDS011;21755;43.608;1.236;2022-12-24T13:30:45;4.35;;;2.17;;
34767;SDS011;21755;43.608;1.236;2022-12-24T13:33:11;6.97;;;2.15;;
34767;SDS011;21755;43.608;1.236;2022-12-24T13:36:16;3.45;;;2.17;;
34767;SDS011;21755;43.608;1.236;2022-12-24T13:38:53;3.92;;;2.13;;
34767;SDS011;21755;43.608;1.236;2022-12-24T13:49:35;6.23;;;1.73;;
34767;SDS011;21755;43.608;1.236;2022-12-24T13:52:26;4.95;;;1.88;;
34767;SDS011;21755;43.608;1.236;2022-12-24T13:59:55;3.63;;;1.73;;
34767;SDS011;21755;43.608;1.236;2022-12-24T14:02:24;2.75;;;1.83;;
34767;SDS011;21755;43.608;1.236;2022-12-24T14:04:53;4.78;;;1.98;;
34767;SDS011;21755;43.608;1.236;2022-12-24T14:07:25;9.07;;;1.98;;
34767;SDS011;21755;43.608;1.236;2022-12-24T14:09:51;3.00;;;1.63;;
34767;SDS011;21755;43.608;1.236;2022-12-24T14:12:44;4.68;;;2.10;;
34767;SDS011;21755;43.608;1.236;2022-12-24T14:18:19;5.45;;;2.15;;
34767;SDS011;21755;43.608;1.236;2022-12-24T14:20:50;3.33;;;1.92;;
34767;SDS011;21755;43.608;1.236;2022-12-24T14:23:42;3.70;;;2.05;;
34767;SDS011;21755;43.608;1.236;2022-12-24T14:26:16;6.22;;;2.70;;
34767;SDS011;21755;43.608;1.236;2022-12-24T14:28:47;3.45;;;1.98;;
34767;SDS011;21755;43.608;1.236;2022-12-24T14:31:20;3.63;;;1.80;;
34767;SDS011;21755;43.608;1.236;2022-12-24T14:33:46;6.38;;;2.70;;
34767;SDS011;21755;43.608;1.236;2022-12-24T14:36:13;5.03;;;2.00;;
34767;SDS011;21755;43.608;1.236;2022-12-24T14:38:44;6.30;;;2.53;;
34767;SDS011;21755;43.608;1.236;2022-12-24T14:41:31;3.60;;;1.88;;
34767;SDS011;21755;43.608;1.236;2022-12-24T14:54:39;5.00;;;2.10;;
34767;SDS011;21755;43.608;1.236;2022-12-24T14:57:10;5.25;;;2.10;;
34767;SDS011;21755;43.608;1.236;2022-12-24T14:59:48;5.93;;;2.33;;
34767;SDS011;21755;43.608;1.236;2022-12-24T15:05:28;2.55;;;1.83;;
34767;SDS011;21755;43.608;1.236;2022-12-24T15:10:33;2.72;;;1.75;;
34767;SDS011;21755;43.608;1.236;2022-12-24T15:15:46;3.97;;;1.83;;
34767;SDS011;21755;43.608;1.236;2022-12-24T15:18:14;2.33;;;1.88;;
34767;SDS011;21755;43.608;1.236;2022-12-24T15:20:44;6.53;;;3.08;;
34767;SDS011;21755;43.608;1.236;2022-12-24T15:23:20;5.93;;;3.08;;
34767;SDS011;21755;43.608;1.236;2022-12-24T15:25:50;8.82;;;3.35;;
34767;SDS011;21755;43.608;1.236;2022-12-24T15:28:34;5.80;;;2.80;;
34767;SDS011;21755;43.608;1.236;2022-12-24T15:31:09;7.75;;;2.72;;
34767;SDS011;21755;43.608;1.236;2022-12-24T15:33:37;5.60;;;2.60;;
34767;SDS011;21755;43.608;1.236;2022-12-24T15:36:04;2.80;;;2.22;;
34767;SDS011;21755;43.608;1.236;2022-12-24T15:38:52;6.13;;;2.15;;
34767;SDS011;21755;43.608;1.236;2022-12-24T15:41:40;6.25;;;2.00;;
34767;SDS011;21755;43.608;1.236;2022-12-24T15:44:32;4.82;;;2.10;;
34767;SDS011;21755;43.608;1.236;2022-12-24T15:47:02;8.98;;;2.63;;
34767;SDS011;21755;43.608;1.236;2022-12-24T15:49:30;3.97;;;2.22;;
34767;SDS011;21755;43.608;1.236;2022-12-24T15:52:10;4.40;;;2.38;;
34767;SDS011;21755;43.608;1.236;2022-12-24T15:54:45;9.02;;;1.98;;
34767;SDS011;21755;43.608;1.236;2022-12-24T15:57:13;3.38;;;1.77;;
34767;SDS011;21755;43.608;1.236;2022-12-24T15:59:51;5.35;;;1.83;;
34767;SDS011;21755;43.608;1.236;2022-12-24T16:07:59;3.08;;;1.70;;
34767;SDS011;21755;43.608;1.236;2022-12-24T16:10:35;4.18;;;1.98;;
34767;SDS011;21755;43.608;1.236;2022-12-24T16:16:04;8.00;;;1.98;;
34767;SDS011;21755;43.608;1.236;2022-12-24T16:18:34;6.35;;;2.20;;
34767;SDS011;21755;43.608;1.236;2022-12-24T16:21:02;3.55;;;1.92;;
34767;SDS011;21755;43.608;1.236;2022-12-24T16:26:04;6.15;;;2.50;;
34767;SDS011;21755;43.608;1.236;2022-12-24T16:28:30;6.57;;;2.70;;
34767;SDS011;21755;43.608;1.236;2022-12-24T16:30:56;10.65;;;3.30;;
34767;SDS011;21755;43.608;1.236;2022-12-24T16:33:23;11.48;;;2.83;;
34767;SDS011;21755;43.608;1.236;2022-12-24T16:35:49;12.70;;;3.60;;
34767;SDS011;21755;43.608;1.236;2022-12-24T16:38:15;14.52;;;3.10;;
34767;SDS011;21755;43.608;1.236;2022-12-24T16:40:41;10.35;;;3.35;;
34767;SDS011;21755;43.608;1.236;2022-12-24T16:43:07;5.57;;;3.17;;
34767;SDS011;21755;43.608;1.236;2022-12-24T16:45:52;8.77;;;4.03;;
34767;SDS011;21755;43.608;1.236;2022-12-24T16:48:23;9.88;;;3.70;;
34767;SDS011;21755;43.608;1.236;2022-12-24T16:50:50;8.98;;;4.78;;
34767;SDS011;21755;43.608;1.236;2022-12-24T16:53:18;11.27;;;4.65;;
34767;SDS011;21755;43.608;1.236;2022-12-24T16:55:45;14.65;;;6.68;;
34767;SDS011;21755;43.608;1.236;2022-12-24T16:58:12;18.95;;;8.50;;
34767;SDS011;21755;43.608;1.236;2022-12-24T17:00:39;16.00;;;8.02;;
34767;SDS011;21755;43.608;1.236;2022-12-24T17:03:06;14.70;;;7.80;;
34767;SDS011;21755;43.608;1.236;2022-12-24T17:05:33;14.23;;;7.07;;
34767;SDS011;21755;43.608;1.236;2022-12-24T17:08:02;13.00;;;6.18;;
34767;SDS011;21755;43.608;1.236;2022-12-24T17:10:28;14.55;;;7.07;;
34767;SDS011;21755;43.608;1.236;2022-12-24T17:12:53;12.10;;;5.85;;
34767;SDS011;21755;43.608;1.236;2022-12-24T17:15:20;17.67;;;8.73;;
34767;SDS011;21755;43.608;1.236;2022-12-24T17:17:46;13.85;;;6.55;;